EST,Max TemperatureF,Mean TemperatureF,Min TemperatureF,Max Dew PointF,MeanDew PointF,Min DewpointF,Max Humidity, Mean Humidity, Min Humidity, Max Sea Level PressureIn, Mean Sea Level PressureIn, Min Sea Level PressureIn, Max VisibilityMiles, Mean VisibilityMiles, Min VisibilityMiles, Max Wind SpeedMPH, Mean Wind SpeedMPH, Max Gust SpeedMPH,PrecipitationIn, CloudCover, Events, WindDirDegrees
2012-11-1,47,45,42,43,41,38,92,87,82,29.56,29.52,29.49,10,9,5,13,7,17,0.02,8,Rain,189
2012-11-2,48,44,40,40,35,29,92,71,50,29.71,29.61,29.54,10,10,10,14,6,18,0.01,7,Rain,239
2012-11-3,46,43,39,36,30,27,85,67,49,29.92,29.82,29.69,10,10,10,17,7,23,0.00,8,,319
2012-11-4,44,38,32,31,28,23,89,69,49,30.04,29.97,29.91,10,10,10,17,8,23,0.00,7,,331
2012-11-5,40,34,28,22,18,14,61,48,34,30.19,30.10,30.02,10,10,10,16,8,22,0.00,6,,326
2012-11-6,38,28,18,21,17,13,91,63,35,30.27,30.22,30.18,10,10,10,9,1,12,0.00,0,,97
2012-11-7,36,27,17,23,19,14,100,74,47,30.22,30.10,29.96,10,10,10,16,7,21,0.00,2,,17
2012-11-8,42,38,33,27,24,19,64,58,51,29.98,29.93,29.88,10,10,10,24,10,35,0.00,7,,8
2012-11-9,50,38,25,36,26,20,78,55,32,30.15,30.07,29.98,10,10,10,17,4,22,0.00,3,,313
2012-11-10,49,39,28,36,32,29,100,77,53,30.43,30.32,30.16,10,10,6,13,3,16,0.00,3,,64
2012-11-11,62,50,37,43,37,30,92,72,51,30.43,30.40,30.34,10,9,6,14,3,17,T,4,,205
2012-11-12,68,52,36,54,45,36,100,72,44,30.39,30.26,30.05,10,9,2,26,9,38,0.00,1,,199
2012-11-13,63,46,28,54,36,24,100,80,59,30.51,30.30,30.01,10,8,3,26,6,38,0.42,7,Rain,265
2012-11-14,43,33,22,28,23,20,100,72,43,30.62,30.57,30.51,10,10,10,14,4,17,0.00,0,,42
2012-11-15,39,30,20,27,23,19,100,75,50,30.53,30.45,30.37,10,10,9,6,1,9,0.00,0,,49
2012-11-16,41,30,18,30,24,18,100,80,59,30.52,30.42,30.36,10,9,5,7,0,8,0.00,2,,100
2012-11-17,43,32,20,31,24,18,100,79,57,30.72,30.65,30.53,10,9,7,8,1,13,0.00,1,,110
2012-11-18,46,32,17,29,22,17,100,73,45,30.76,30.69,30.63,10,9,7,6,0,7,0.00,0,,-1
2012-11-19,46,32,17,30,22,15,100,73,45,30.62,30.49,30.30,10,8,5,6,0,8,0.00,0,,150
2012-11-20,45,33,21,31,26,19,100,79,58,30.29,30.22,30.17,10,9,5,6,1,7,0.00,0,,37
2012-11-21,50,37,23,34,28,22,100,71,42,30.29,30.24,30.19,10,8,5,6,0,9,0.00,0,,200
2012-11-22,51,35,19,31,25,19,100,71,41,30.30,30.22,30.11,10,9,7,9,2,12,0.00,0,,176
2012-11-23,56,38,20,44,31,19,100,69,38,30.09,29.84,29.63,10,9,6,15,4,20,0.01,3,Rain,214
2012-11-24,45,38,30,31,19,14,70,51,32,29.75,29.67,29.60,10,10,9,24,9,32,T,6,,266
2012-11-25,36,31,25,28,18,12,85,63,40,29.88,29.82,29.75,10,10,7,18,6,26,T,6,,257
2012-11-26,43,37,30,29,23,14,92,63,33,30.24,30.05,29.87,10,10,5,17,7,23,T,7,Snow,228
2012-11-27,39,32,25,29,26,22,92,70,48,30.30,30.27,30.22,10,9,5,12,3,15,0.00,7,,172
2012-11-28,37,30,23,29,25,19,100,74,48,30.25,30.21,30.14,10,6,0,10,4,15,T,6,Fog-Snow,203
2012-11-29,42,32,21,29,22,16,85,61,36,30.27,30.21,30.15,10,10,6,17,7,28,T,6,Snow,215
2012-11-30,28,23,17,23,12,3,88,65,42,30.58,30.49,30.28,10,10,10,17,9,22,T,7,,60